Time;durP1;ratioP1;P1;durP2;ratioP2;P2;SDS_P1;SDS_P2;PMS_P1;PMS_P2;Temp;Humidity;BMP_temperature;BMP_pressure;BME280_temperature;BME280_humidity;BME280_pressure;Samples;Min_cycle;Max_cycle;Signal;HPM_P1;HPM_P2
2023/06/23 04:02:22;;;;;;;1.73;1.17;;;20.10;28.50;;;;;;5165089;23;20496;-75
2023/06/23 04:04:56;;;;;;;1.50;1.40;;;20.00;28.90;;;;;;4944763;29;20454;-74
2023/06/23 04:07:26;;;;;;;0.70;0.37;;;19.80;30.00;;;;;;4943712;29;20502;-74
2023/06/23 04:09:56;;;;;;;0.80;0.50;;;19.80;30.80;;;;;;4941349;29;20526;-74
2023/06/23 04:12:26;;;;;;;1.57;0.87;;;19.80;32.90;;;;;;4917945;29;20551;-73
2023/06/23 04:14:55;;;;;;;1.63;1.53;;;19.70;32.20;;;;;;4918431;29;20556;-74
2023/06/23 04:17:26;;;;;;;0.60;0.30;;;19.60;32.30;;;;;;4945700;23;20928;-74
2023/06/23 04:19:57;;;;;;;0.60;0.20;;;19.70;44.00;;;;;;4914425;29;20448;-74
2023/06/23 04:22:27;;;;;;;1.50;1.23;;;20.40;45.70;;;;;;4914026;29;20446;-76
2023/06/23 04:24:57;;;;;;;0.90;0.60;;;19.60;34.70;;;;;;4900046;29;20554;-74
2023/06/23 04:27:26;;;;;;;0.60;0.20;;;19.60;34.80;;;;;;4898639;29;20568;-74
2023/06/23 04:29:56;;;;;;;1.63;0.93;;;19.60;46.60;;;;;;4898421;29;20548;-74
2023/06/23 04:32:25;;;;;;;0.60;0.20;;;19.50;44.50;;;;;;4909130;29;20535;-74
2023/06/23 04:34:53;;;;;;;0.60;0.20;;;19.60;36.00;;;;;;4937143;29;20443;-74
2023/06/23 04:37:27;;;;;;;0.70;0.37;;;19.70;35.70;;;;;;4930956;29;20517;-74
2023/06/23 04:39:59;;;;;;;1.00;0.40;;;19.70;45.70;;;;;;4935881;29;20448;-73
2023/06/23 04:42:30;;;;;;;0.60;0.10;;;19.80;37.10;;;;;;4917164;29;20504;-75
2023/06/23 04:45:01;;;;;;;1.70;0.97;;;19.80;45.90;;;;;;4922187;29;20988;-72
2023/06/23 04:50:50;;;;;;;1.33;1.23;;;19.80;46.90;;;;;;4859561;29;20813;-74
2023/06/23 04:53:21;;;;;;;0.60;0.30;;;19.80;44.40;;;;;;4915244;29;20476;-72
2023/06/23 04:55:54;;;;;;;0.70;0.40;;;19.60;36.10;;;;;;4917372;29;20453;-72
2023/06/23 04:58:26;;;;;;;3.33;1.53;;;19.60;44.00;;;;;;4917253;29;20495;-72
2023/06/23 05:00:55;;;;;;;1.23;0.97;;;19.60;43.60;;;;;;4917007;29;20531;-72
2023/06/23 05:03:26;;;;;;;0.60;0.40;;;19.60;53.60;;;;;;4917187;29;20483;-72
2023/06/23 05:05:57;;;;;;;0.60;0.20;;;19.70;39.10;;;;;;4916811;29;20835;-71
2023/06/23 05:08:27;;;;;;;1.77;1.40;;;19.60;42.70;;;;;;4916913;29;20452;-73
2023/06/23 05:10:59;;;;;;;2.97;2.20;;;19.60;53.00;;;;;;4915800;29;20479;-69
2023/06/23 05:13:29;;;;;;;1.67;0.93;;;19.80;41.70;;;;;;4920224;29;20544;-70
2023/06/23 05:15:58;;;;;;;0.60;0.20;;;19.90;40.90;;;;;;4913464;29;20456;-70
2023/06/23 05:18:29;;;;;;;1.73;1.27;;;19.80;51.00;;;;;;4910910;29;20556;-72
2023/06/23 05:21:00;;;;;;;0.60;0.13;;;19.80;46.80;;;;;;4917025;29;20436;-72
2023/06/23 05:23:29;;;;;;;0.70;0.43;;;19.70;47.80;;;;;;4917321;29;20486;-71
2023/06/23 05:26:16;;;;;;;0.80;0.63;;;19.90;33.50;;;;;;4917063;29;20465;-72
2023/06/23 05:28:46;;;;;;;0.80;0.50;;;19.90;40.40;;;;;;4916729;29;20445;-72
2023/06/23 05:31:15;;;;;;;1.80;1.23;;;20.00;38.60;;;;;;4914781;29;20829;-72
2023/06/23 05:33:47;;;;;;;0.83;0.83;;;20.00;28.40;;;;;;4909912;29;20871;-72
2023/06/23 05:36:16;;;;;;;0.60;0.20;;;20.00;31.70;;;;;;4915855;29;20472;-74
2023/06/23 05:38:46;;;;;;;0.73;0.73;;;20.00;30.60;;;;;;4916100;29;21021;-71
2023/06/23 05:41:15;;;;;;;2.03;1.93;;;20.00;31.20;;;;;;4915145;29;20519;-72
2023/06/23 05:43:42;;;;;;;13.50;12.70;;;20.00;41.90;;;;;;4915893;29;20570;-73
2023/06/23 05:46:15;;;;;;;1.43;1.30;;;20.00;30.40;;;;;;4915556;29;20671;-73
2023/06/23 05:48:48;;;;;;;0.60;0.10;;;19.90;42.30;;;;;;4912400;29;20456;-74
2023/06/23 05:51:21;;;;;;;0.60;0.10;;;20.00;30.90;;;;;;4915551;29;20768;-76
2023/06/23 05:53:55;;;;;;;1.00;0.40;;;20.10;41.00;;;;;;4915942;29;20556;-76
2023/06/23 05:56:29;;;;;;;1.00;0.50;;;20.10;28.60;;;;;;4916918;29;20506;-76
2023/06/23 05:58:59;;;;;;;0.70;0.30;;;20.10;38.60;;;;;;4919078;29;20452;-75
2023/06/23 06:01:33;;;;;;;0.60;0.20;;;19.90;31.30;;;;;;4922273;29;20529;-78
2023/06/23 06:04:12;;;;;;;0.60;0.20;;;20.00;43.10;;;;;;4920951;29;20478;-73
2023/06/23 06:06:40;;;;;;;0.67;0.37;;;20.00;36.70;;;;;;4918191;29;20479;-70
2023/06/23 06:09:11;;;;;;;1.90;1.70;;;20.00;46.70;;;;;;4917809;29;20527;-75
2023/06/23 06:11:43;;;;;;;0.60;0.10;;;19.90;41.40;;;;;;4926612;29;20473;-75
2023/06/23 06:14:14;;;;;;;0.60;0.10;;;19.80;33.20;;;;;;4936158;29;20455;-76
2023/06/23 06:16:45;;;;;;;1.33;1.13;;;19.90;28.20;;;;;;4907622;29;20529;-75
2023/06/23 06:19:17;;;;;;;1.70;1.60;;;19.90;29.00;;;;;;4897102;29;20974;-75
2023/06/23 06:21:47;;;;;;;1.73;1.63;;;19.90;38.10;;;;;;4897378;29;20541;-75
2023/06/23 06:24:16;;;;;;;1.60;1.50;;;19.90;24.90;;;;;;4914031;29;20491;-74
2023/06/23 06:26:46;;;;;;;0.67;0.43;;;19.90;23.80;;;;;;4916818;29;20464;-76
2023/06/23 06:29:15;;;;;;;0.90;0.63;;;19.90;23.60;;;;;;4922443;29;20446;-76
2023/06/23 06:31:45;;;;;;;0.60;0.20;;;20.00;30.00;;;;;;4921733;29;20487;-75
2023/06/23 06:34:17;;;;;;;0.60;0.30;;;20.10;33.30;;;;;;4918518;29;20445;-76
2023/06/23 06:36:45;;;;;;;0.60;0.20;;;20.30;21.30;;;;;;4910234;29;20464;-74
2023/06/23 06:39:14;;;;;;;1.53;0.43;;;20.30;29.90;;;;;;4905758;29;20878;-76
2023/06/23 06:41:45;;;;;;;0.87;0.50;;;20.30;27.50;;;;;;4899272;29;20450;-74
2023/06/23 06:44:12;;;;;;;0.60;0.20;;;20.30;22.00;;;;;;4903327;29;20579;-75
2023/06/23 06:46:43;;;;;;;0.80;0.77;;;20.20;18.60;;;;;;4915518;29;20564;-76
2023/06/23 06:49:11;;;;;;;0.60;0.10;;;20.20;29.10;;;;;;4906497;29;20497;-77
2023/06/23 06:51:43;;;;;;;0.60;0.10;;;20.20;30.50;;;;;;4896492;29;20548;-74
2023/06/23 06:54:11;;;;;;;0.60;0.20;;;20.30;30.00;;;;;;4900001;29;20818;-76
2023/06/23 06:56:42;;;;;;;0.70;0.53;;;20.20;21.10;;;;;;4901600;29;20480;-75
2023/06/23 06:59:10;;;;;;;0.90;0.60;;;20.20;30.40;;;;;;4903702;29;20453;-75
2023/06/23 07:01:38;;;;;;;1.27;0.70;;;20.20;19.30;;;;;;4901425;29;20459;-76
2023/06/23 07:04:07;;;;;;;0.60;0.20;;;20.20;28.30;;;;;;4902471;29;20489;-76
2023/06/23 07:06:37;;;;;;;1.57;1.47;;;20.30;20.50;;;;;;4919113;29;20556;-74
2023/06/23 07:09:06;;;;;;;3.37;1.30;;;20.30;27.80;;;;;;4918839;29;20530;-74
2023/06/23 07:11:35;;;;;;;0.60;0.17;;;20.30;17.90;;;;;;4928032;29;21002;-77
2023/06/23 07:14:04;;;;;;;1.53;0.53;;;20.40;17.00;;;;;;4938521;29;20535;-74
2023/06/23 07:16:33;;;;;;;1.70;1.07;;;20.50;12.80;;;;;;4938281;29;20483;-74
2023/06/23 07:19:01;;;;;;;1.30;0.83;;;20.70;13.80;;;;;;4939415;29;20451;-75
2023/06/23 07:21:29;;;;;;;2.80;0.40;;;20.70;21.70;;;;;;4938332;29;20472;-75
2023/06/23 07:23:57;;;;;;;0.60;0.20;;;21.00;10.00;;;;;;4937709;29;20507;-74
2023/06/23 07:26:26;;;;;;;0.80;0.43;;;21.00;10.40;;;;;;4937627;29;20575;-74
2023/06/23 07:28:54;;;;;;;1.60;1.00;;;21.10;9.60;;;;;;4938206;29;20440;-74
2023/06/23 07:31:25;;;;;;;1.47;0.87;;;21.10;17.30;;;;;;4929106;29;20484;-74
2023/06/23 07:33:53;;;;;;;0.60;0.10;;;21.20;17.40;;;;;;4933178;29;20963;-76
2023/06/23 07:36:21;;;;;;;1.10;0.70;;;21.30;9.10;;;;;;4920152;29;20559;-75
2023/06/23 07:38:49;;;;;;;1.53;0.87;;;21.30;15.70;;;;;;4918915;29;20543;-76
2023/06/23 07:41:17;;;;;;;1.00;0.50;;;21.40;14.80;;;;;;4918463;29;20482;-75
2023/06/23 07:43:47;;;;;;;1.00;0.60;;;21.60;2.90;;;;;;4918548;29;20544;-75
2023/06/23 07:46:14;;;;;;;0.70;0.27;;;21.50;2.00;;;;;;4919218;29;20497;-76
2023/06/23 07:48:43;;;;;;;1.03;0.77;;;21.60;3.90;;;;;;4919220;29;20449;-75
2023/06/23 07:51:11;;;;;;;0.60;0.20;;;21.60;11.70;;;;;;4918990;29;20990;-76
2023/06/23 07:53:39;;;;;;;2.97;2.10;;;21.60;3.90;;;;;;4917578;29;20461;-76
2023/06/23 07:56:11;;;;;;;0.97;0.87;;;21.40;3.50;;;;;;4919103;29;20477;-75
2023/06/23 07:58:38;;;;;;;0.60;0.20;;;21.40;11.00;;;;;;4919086;29;20586;-76
2023/06/23 08:01:10;;;;;;;1.47;0.83;;;21.40;11.80;;;;;;4918612;29;20465;-76
2023/06/23 08:03:38;;;;;;;0.80;0.50;;;21.40;11.80;;;;;;4917817;29;20452;-75
2023/06/23 08:06:06;;;;;;;0.60;0.20;;;21.40;1.00;;;;;;4917677;29;20504;-76
2023/06/23 08:08:34;;;;;;;0.80;0.40;;;21.40;9.10;;;;;;4918797;29;20490;-77
2023/06/23 08:11:02;;;;;;;0.70;0.20;;;21.50;9.00;;;;;;4923655;29;20881;-76
2023/06/23 08:13:30;;;;;;;0.60;0.10;;;21.50;1.00;;;;;;4917756;29;20556;-76
2023/06/23 08:15:58;;;;;;;2.60;0.73;;;21.60;1.00;;;;;;4918168;29;20513;-75
2023/06/23 08:18:27;;;;;;;1.13;1.03;;;21.60;8.90;;;;;;4918428;29;20476;-74
2023/06/23 08:20:55;;;;;;;0.70;0.20;;;21.70;5.60;;;;;;4918649;29;20548;-75
2023/06/23 08:23:23;;;;;;;0.90;0.20;;;21.60;3.00;;;;;;4909279;29;20468;-75
2023/06/23 08:25:51;;;;;;;0.60;0.20;;;21.70;1.00;;;;;;4908586;29;20473;-75
2023/06/23 08:28:19;;;;;;;0.60;0.10;;;21.70;1.00;;;;;;4911931;29;20489;-77
2023/06/23 08:30:47;;;;;;;0.90;0.50;;;21.70;1.00;;;;;;4918258;29;20452;-75
2023/06/23 08:33:15;;;;;;;0.70;0.27;;;21.80;1.20;;;;;;4918144;29;20453;-74
2023/06/23 08:35:44;;;;;;;0.70;0.20;;;21.90;1.00;;;;;;4918753;29;20540;-76
2023/06/23 08:38:14;;;;;;;0.60;0.20;;;21.90;1.00;;;;;;4918531;29;20453;-77
2023/06/23 08:40:42;;;;;;;2.63;2.10;;;21.90;1.30;;;;;;4917996;29;20517;-76
2023/06/23 08:43:10;;;;;;;0.70;0.20;;;21.80;1.00;;;;;;4918169;29;20449;-75
2023/06/23 08:45:41;;;;;;;0.70;0.40;;;22.00;1.00;;;;;;4919736;29;20541;-75
2023/06/23 08:48:09;;;;;;;3.20;1.50;;;21.90;2.90;;;;;;4921852;29;20458;-76
2023/06/23 08:50:38;;;;;;;0.60;0.13;;;22.00;1.00;;;;;;4921639;29;21269;-76
2023/06/23 08:53:07;;;;;;;0.70;0.20;;;22.00;1.00;;;;;;4921206;29;20452;-75
2023/06/23 08:55:35;;;;;;;0.80;0.40;;;22.00;1.00;;;;;;4918249;29;20473;-75
2023/06/23 08:58:04;;;;;;;0.70;0.50;;;22.10;1.00;;;;;;4917416;29;20504;-75
2023/06/23 09:00:32;;;;;;;0.70;0.20;;;22.10;1.00;;;;;;4917581;29;20549;-75
2023/06/23 09:03:01;;;;;;;1.03;0.47;;;22.20;1.00;;;;;;4935865;29;20530;-76
2023/06/23 09:05:29;;;;;;;6.63;1.90;;;22.30;1.00;;;;;;4936816;29;20517;-77
2023/06/23 09:07:57;;;;;;;2.67;2.47;;;22.30;1.00;;;;;;4936881;29;20476;-75
2023/06/23 09:10:26;;;;;;;0.70;0.10;;;22.40;1.00;;;;;;4936322;29;20531;-76
2023/06/23 09:13:17;;;;;;;0.70;0.20;;;22.30;1.00;;;;;;4937965;29;20494;-76
2023/06/23 09:15:46;;;;;;;0.70;0.10;;;22.40;1.00;;;;;;4939059;29;21045;-75
2023/06/23 09:18:31;;;;;;;0.70;0.20;;;22.40;1.00;;;;;;4937000;29;20547;-75
2023/06/23 09:21:02;;;;;;;0.70;0.20;;;22.40;1.00;;;;;;4940303;29;20544;-76
2023/06/23 09:23:31;;;;;;;0.73;0.43;;;22.40;1.00;;;;;;4938992;29;20481;-75
2023/06/23 09:26:03;;;;;;;0.70;0.20;;;22.50;1.00;;;;;;4937880;29;20920;-76
2023/06/23 09:28:35;;;;;;;2.40;2.20;;;22.50;1.00;;;;;;4937734;29;20483;-75
2023/06/23 09:31:09;;;;;;;2.43;2.00;;;22.40;1.00;;;;;;4935975;29;20451;-75
2023/06/23 09:33:46;;;;;;;0.67;0.17;;;22.40;1.00;;;;;;4926736;29;20475;-75
2023/06/23 09:36:14;;;;;;;0.60;0.10;;;22.50;1.00;;;;;;4936598;29;20550;-75
2023/06/23 09:38:42;;;;;;;1.80;1.70;;;22.50;1.00;;;;;;4936164;29;20461;-76
2023/06/23 09:41:13;;;;;;;1.00;0.63;;;22.60;1.00;;;;;;4934918;29;20493;-75
2023/06/23 09:43:42;;;;;;;0.70;0.20;;;23.40;1.00;;;;;;4931889;29;20477;-75
2023/06/23 09:46:11;;;;;;;0.83;0.50;;;22.60;1.00;;;;;;4932937;29;20951;-75
2023/06/23 09:48:40;;;;;;;0.97;0.87;;;22.50;1.00;;;;;;4936200;29;20463;-77
2023/06/23 09:51:10;;;;;;;0.70;0.10;;;22.40;1.00;;;;;;4939030;29;20529;-75
2023/06/23 09:53:39;;;;;;;0.70;0.10;;;22.40;1.00;;;;;;4933743;29;20458;-75
2023/06/23 09:56:08;;;;;;;0.70;0.20;;;22.40;1.00;;;;;;4929419;29;20544;-75
2023/06/23 09:58:39;;;;;;;0.70;0.10;;;22.40;1.00;;;;;;4937885;29;20460;-74
2023/06/23 10:01:10;;;;;;;1.17;1.07;;;22.50;1.00;;;;;;4938037;29;20540;-74
2023/06/23 10:03:45;;;;;;;0.70;0.30;;;22.50;1.00;;;;;;4937727;29;20451;-76
2023/06/23 10:06:25;;;;;;;0.70;0.20;;;22.60;1.00;;;;;;4933671;29;21008;-76
2023/06/23 10:08:55;;;;;;;0.70;0.10;;;22.60;1.00;;;;;;4935786;29;20508;-75
2023/06/23 10:11:31;;;;;;;0.70;0.10;;;22.70;1.00;;;;;;4935858;29;20456;-75
2023/06/23 10:14:05;;;;;;;0.83;0.47;;;22.70;1.00;;;;;;4936185;29;20950;-76
2023/06/23 10:16:35;;;;;;;0.70;0.10;;;22.70;1.00;;;;;;4935610;29;20477;-74
2023/06/23 10:19:04;;;;;;;0.90;0.53;;;22.70;1.00;;;;;;4935311;29;20445;-74
2023/06/23 10:21:32;;;;;;;3.40;2.87;;;22.70;1.00;;;;;;4935249;29;20454;-75
2023/06/23 10:24:03;;;;;;;0.70;0.20;;;22.80;1.00;;;;;;4934352;29;20462;-76
2023/06/23 10:26:34;;;;;;;0.70;0.20;;;22.90;1.00;;;;;;4936476;29;20590;-74
2023/06/23 10:29:07;;;;;;;1.20;1.10;;;23.00;1.00;;;;;;4935959;29;20450;-77
2023/06/23 10:31:36;;;;;;;1.63;1.17;;;22.90;1.00;;;;;;4939650;29;20485;-75
2023/06/23 10:34:07;;;;;;;5.23;1.03;;;22.90;1.00;;;;;;4941365;29;20459;-76
2023/06/23 10:36:37;;;;;;;0.70;0.10;;;;;;;;;;4941355;29;20473;-75
2023/06/23 10:39:10;;;;;;;0.80;0.30;;;23.00;1.00;;;;;;4943451;29;20960;-75
2023/06/23 10:41:45;;;;;;;0.70;0.33;;;23.00;1.00;;;;;;4938078;29;20828;-75
2023/06/23 10:44:19;;;;;;;0.70;0.30;;;23.20;1.00;;;;;;4936551;29;20452;-75
2023/06/23 10:46:48;;;;;;;0.70;0.30;;;23.30;1.00;;;;;;4936718;29;21072;-74
2023/06/23 10:49:16;;;;;;;0.83;0.37;;;;;;;;;;5000007;23;20498;-70
2023/06/23 10:51:50;;;;;;;0.80;0.30;;;23.30;1.00;;;;;;4981770;28;20433;-70
2023/06/23 10:54:27;;;;;;;0.70;0.20;;;23.30;1.00;;;;;;4975036;28;20493;-70
2023/06/23 10:56:55;;;;;;;3.93;1.50;;;23.30;1.00;;;;;;4974146;28;20443;-70
2023/06/23 10:59:26;;;;;;;1.93;0.80;;;23.30;1.00;;;;;;4980153;28;20489;-70
2023/06/23 11:02:25;;;;;;;0.70;0.20;;;23.30;1.00;;;;;;4992063;28;20928;-70
2023/06/23 11:04:56;;;;;;;0.70;0.20;;;23.30;1.00;;;;;;4894298;29;20448;-70
2023/06/23 11:07:25;;;;;;;0.70;0.20;;;23.20;1.00;;;;;;4972599;28;20584;-69
2023/06/23 11:10:03;;;;;;;0.70;0.20;;;23.20;1.00;;;;;;4992067;28;20591;-68
2023/06/23 11:12:32;;;;;;;0.70;0.43;;;23.20;1.00;;;;;;4972398;28;21038;-70
2023/06/23 11:15:15;;;;;;;0.90;0.67;;;23.10;1.00;;;;;;4973066;28;20452;-68
2023/06/23 11:17:45;;;;;;;0.80;0.20;;;23.10;1.00;;;;;;5010333;28;20500;-69
2023/06/23 11:20:28;;;;;;;0.70;0.20;;;23.10;1.00;;;;;;5001029;28;20509;-69
2023/06/23 11:22:58;;;;;;;0.70;0.20;;;23.10;1.00;;;;;;4991036;28;20478;-69
2023/06/23 11:25:30;;;;;;;0.70;0.20;;;23.10;1.00;;;;;;4990836;28;20481;-69
2023/06/23 11:28:28;;;;;;;0.80;0.40;;;23.20;1.00;;;;;;4981366;28;20489;-69
2023/06/23 11:31:08;;;;;;;0.80;0.30;;;23.20;1.00;;;;;;4990970;28;20499;-70
2023/06/23 11:33:38;;;;;;;0.80;0.80;;;23.40;1.00;;;;;;4991250;28;20797;-69
2023/06/23 11:36:07;;;;;;;0.70;0.20;;;23.40;1.00;;;;;;4995971;28;20443;-69
2023/06/23 11:38:37;;;;;;;0.70;0.40;;;23.40;1.00;;;;;;5011046;28;20497;-68
2023/06/23 11:41:06;;;;;;;0.80;0.40;;;;;;;;;;5014102;28;20546;-68
2023/06/23 11:43:34;;;;;;;0.70;0.10;;;23.50;1.00;;;;;;5014714;28;20453;-68
2023/06/23 11:46:10;;;;;;;0.70;0.13;;;23.40;1.00;;;;;;5014394;28;20475;-70
2023/06/23 11:48:39;;;;;;;0.70;0.20;;;23.50;1.00;;;;;;5014729;28;20525;-70
2023/06/23 11:51:09;;;;;;;0.70;0.30;;;23.60;1.00;;;;;;5005065;28;20451;-70
2023/06/23 11:53:40;;;;;;;0.80;0.30;;;22.00;1.00;;;;;;4994603;28;20531;-69
2023/06/23 11:56:08;;;;;;;0.70;0.10;;;23.70;1.00;;;;;;4996026;28;20569;-69
2023/06/23 11:58:37;;;;;;;0.70;0.20;;;26.80;1.00;;;;;;4995172;28;20984;-68
2023/06/23 12:01:04;;;;;;;3.57;1.57;;;23.70;1.00;;;;;;4995034;28;20532;-69
2023/06/23 12:03:35;;;;;;;1.00;0.60;;;23.80;1.00;;;;;;4994779;28;20441;-69
2023/06/23 12:06:03;;;;;;;1.00;0.70;;;23.90;1.00;;;;;;4993998;28;20446;-68
2023/06/23 12:08:32;;;;;;;0.70;0.20;;;24.00;1.00;;;;;;4995422;28;20522;-68
2023/06/23 12:11:00;;;;;;;1.17;0.63;;;24.10;1.00;;;;;;4996457;28;20522;-68
2023/06/23 12:13:28;;;;;;;0.70;0.20;;;;;;;;;;5012719;28;20453;-68
2023/06/23 12:15:57;;;;;;;0.90;0.37;;;;;;;;;;5014633;28;20932;-68
2023/06/23 12:18:25;;;;;;;0.70;0.10;;;24.20;1.00;;;;;;5014736;28;20525;-69
2023/06/23 12:20:54;;;;;;;0.70;0.10;;;24.20;1.00;;;;;;5006267;28;20478;-69
2023/06/23 12:23:23;;;;;;;0.70;0.30;;;;;;;;;;4993920;28;20452;-69
2023/06/23 12:25:52;;;;;;;0.70;0.10;;;;;;;;;;5005232;28;20458;-69
2023/06/23 12:28:21;;;;;;;0.70;0.20;;;24.30;1.00;;;;;;5013950;28;21217;-69
2023/06/23 12:30:50;;;;;;;0.70;0.30;;;24.30;1.00;;;;;;5013893;28;20454;-69
2023/06/23 12:33:22;;;;;;;0.70;0.10;;;24.30;1.00;;;;;;5005884;28;20532;-69
2023/06/23 12:36:00;;;;;;;0.70;0.17;;;24.40;1.00;;;;;;5003939;28;20458;-69
2023/06/23 12:38:30;;;;;;;0.70;0.20;;;24.50;1.00;;;;;;5013618;28;20463;-68
2023/06/23 12:41:15;;;;;;;0.70;0.10;;;24.60;1.00;;;;;;5013733;28;20882;-67
2023/06/23 12:43:44;;;;;;;0.70;0.20;;;24.70;1.00;;;;;;5013451;28;20479;-69
2023/06/23 12:46:15;;;;;;;0.70;0.20;;;24.80;1.00;;;;;;5012117;28;20446;-70
2023/06/23 12:48:43;;;;;;;1.37;0.37;;;24.90;1.00;;;;;;5006200;28;20547;-68
2023/06/23 12:51:13;;;;;;;0.70;0.20;;;25.10;1.00;;;;;;4993291;28;20530;-69
2023/06/23 12:53:41;;;;;;;0.70;0.20;;;25.10;1.00;;;;;;4993831;28;20454;-70
2023/06/23 12:56:09;;;;;;;0.70;0.10;;;;;;;;;;4994390;28;20510;-70
2023/06/23 12:58:38;;;;;;;1.47;0.63;;;;;;;;;;4994016;28;20487;-70
2023/06/23 13:01:06;;;;;;;6.87;3.13;;;;;;;;;;4993430;28;20494;-70
2023/06/23 13:03:34;;;;;;;0.70;0.20;;;25.40;1.00;;;;;;4993138;28;20452;-70
2023/06/23 13:06:02;;;;;;;0.80;0.30;;;25.50;1.00;;;;;;4993496;28;20463;-70
2023/06/23 13:08:32;;;;;;;0.80;0.20;;;25.50;1.00;;;;;;5007403;28;20486;-70
2023/06/23 13:11:00;;;;;;;0.70;0.20;;;25.40;1.00;;;;;;5005383;28;20454;-69
2023/06/23 13:13:28;;;;;;;0.70;0.30;;;25.40;1.00;;;;;;4996554;28;20452;-69
2023/06/23 13:15:56;;;;;;;3.27;1.50;;;25.20;1.00;;;;;;4996869;28;20458;-70
2023/06/23 13:18:24;;;;;;;0.70;0.10;;;25.20;1.00;;;;;;4996454;28;20468;-70
2023/06/23 13:20:52;;;;;;;0.70;0.30;;;;;;;;;;4996392;28;20523;-69
2023/06/23 13:23:20;;;;;;;0.70;0.20;;;25.20;1.00;;;;;;4994941;28;20494;-71
2023/06/23 13:25:49;;;;;;;0.70;0.20;;;25.40;1.00;;;;;;4996692;28;20554;-69
2023/06/23 13:28:17;;;;;;;1.20;0.73;;;;;;;;;;4996185;28;20991;-71
2023/06/23 13:30:45;;;;;;;0.70;0.10;;;25.50;1.00;;;;;;4993721;28;20470;-70
2023/06/23 13:33:14;;;;;;;0.70;0.20;;;25.60;1.00;;;;;;4995669;28;20495;-70
2023/06/23 13:35:42;;;;;;;0.80;0.20;;;25.60;1.00;;;;;;5015006;28;20969;-70
2023/06/23 13:38:10;;;;;;;0.80;0.37;;;25.50;1.00;;;;;;5016447;28;20547;-70
2023/06/23 13:40:39;;;;;;;0.70;0.20;;;25.50;1.00;;;;;;5013572;28;20527;-69
2023/06/23 13:43:08;;;;;;;4.10;0.93;;;25.60;1.00;;;;;;5012744;28;20546;-71
2023/06/23 13:45:36;;;;;;;0.70;0.20;;;25.70;1.00;;;;;;4994809;28;20536;-69
2023/06/23 13:48:04;;;;;;;0.70;0.13;;;25.80;1.00;;;;;;4994465;28;20489;-69
2023/06/23 13:50:32;;;;;;;0.70;0.20;;;;;;;;;;4984360;28;20455;-69
2023/06/23 13:53:00;;;;;;;1.50;0.30;;;26.10;1.00;;;;;;4992047;28;20933;-69
2023/06/23 13:55:28;;;;;;;0.70;0.20;;;26.20;1.00;;;;;;4995626;28;20539;-70
2023/06/23 13:57:57;;;;;;;0.70;0.10;;;26.20;1.00;;;;;;4993118;28;20543;-70
2023/06/23 14:00:26;;;;;;;0.70;0.10;;;26.00;1.00;;;;;;4993119;28;21198;-69
2023/06/23 14:02:54;;;;;;;0.70;0.10;;;25.80;1.00;;;;;;4993192;28;20542;-71
2023/06/23 14:05:22;;;;;;;0.70;0.10;;;25.80;1.00;;;;;;4993295;28;20448;-70
2023/06/23 14:07:50;;;;;;;1.10;0.20;;;25.80;1.00;;;;;;4992389;28;20472;-70
2023/06/23 14:10:18;;;;;;;0.70;0.10;;;;;;;;;;5002788;28;20550;-71
2023/06/23 14:12:46;;;;;;;0.70;0.20;;;;;;;;;;4992523;28;20452;-70
2023/06/23 14:15:14;;;;;;;0.70;0.10;;;26.10;1.00;;;;;;4990414;28;20528;-71
2023/06/23 14:17:44;;;;;;;3.27;0.40;;;26.30;1.00;;;;;;4986877;28;20480;-70
2023/06/23 14:20:12;;;;;;;0.70;0.20;;;26.40;1.00;;;;;;4992863;28;20448;-70
2023/06/23 14:22:41;;;;;;;0.70;0.20;;;26.60;1.00;;;;;;4996430;28;20550;-70
2023/06/23 14:25:09;;;;;;;1.13;0.60;;;26.70;1.00;;;;;;4990660;28;20445;-70
2023/06/23 14:27:37;;;;;;;1.10;0.30;;;26.70;1.00;;;;;;4992460;28;20503;-69
2023/06/23 14:30:06;;;;;;;1.77;0.50;;;26.60;1.00;;;;;;4992342;28;20560;-69
2023/06/23 14:32:34;;;;;;;0.70;0.10;;;26.50;1.00;;;;;;4992168;28;20452;-69
2023/06/23 14:35:04;;;;;;;0.80;0.30;;;26.50;1.00;;;;;;4992065;28;20499;-69
2023/06/23 14:37:32;;;;;;;0.70;0.20;;;26.50;1.00;;;;;;4991490;28;20532;-70
2023/06/23 14:40:03;;;;;;;0.70;0.20;;;26.60;1.00;;;;;;4993268;28;21219;-69
2023/06/23 14:42:31;;;;;;;0.70;0.20;;;26.70;1.00;;;;;;4998803;28;20453;-69
2023/06/23 14:44:59;;;;;;;0.93;0.77;;;26.80;1.00;;;;;;4992134;28;21046;-69
2023/06/23 14:47:27;;;;;;;0.70;0.10;;;26.70;1.00;;;;;;4997821;28;20543;-70
2023/06/23 14:49:56;;;;;;;0.70;0.20;;;26.60;1.00;;;;;;4993345;28;20535;-69
2023/06/23 14:52:25;;;;;;;0.70;0.20;;;26.50;1.00;;;;;;4994660;28;20954;-71
2023/06/23 14:54:53;;;;;;;0.70;0.20;;;26.30;1.00;;;;;;5001397;28;20540;-69
2023/06/23 14:57:21;;;;;;;0.70;0.10;;;26.20;1.00;;;;;;4999991;28;20456;-69
2023/06/23 14:59:48;;;;;;;0.70;0.10;;;26.10;1.00;;;;;;4992489;28;20457;-70
2023/06/23 15:02:16;;;;;;;0.70;0.10;;;26.10;1.00;;;;;;4991738;28;20448;-70
2023/06/23 15:04:44;;;;;;;0.70;0.30;;;26.10;1.00;;;;;;4991902;28;20472;-69
2023/06/23 15:07:12;;;;;;;0.70;0.17;;;26.20;1.00;;;;;;4995781;28;20507;-71
2023/06/23 15:09:41;;;;;;;0.70;0.13;;;26.10;1.00;;;;;;4990879;28;20484;-69
2023/06/23 15:12:10;;;;;;;0.70;0.10;;;26.00;1.00;;;;;;4991922;28;20523;-71
2023/06/23 15:14:38;;;;;;;0.70;0.10;;;26.00;1.00;;;;;;4994354;28;20454;-69
2023/06/23 15:17:06;;;;;;;0.70;0.10;;;26.00;1.00;;;;;;4995849;28;20495;-71
2023/06/23 15:19:34;;;;;;;0.70;0.10;;;;;;;;;;4995570;28;20527;-70
2023/06/23 15:22:03;;;;;;;0.70;0.10;;;;;;;;;;4995527;28;20516;-69
2023/06/23 15:24:31;;;;;;;0.70;0.20;;;26.30;1.00;;;;;;4995088;28;20499;-69
2023/06/23 15:27:00;;;;;;;0.70;0.10;;;26.30;1.00;;;;;;4996557;28;20597;-71
2023/06/23 15:29:28;;;;;;;0.70;0.20;;;26.60;1.00;;;;;;4995108;28;20682;-70
2023/06/23 15:31:57;;;;;;;0.70;0.20;;;26.70;1.00;;;;;;5011699;28;20447;-70
2023/06/23 15:34:27;;;;;;;0.70;0.17;;;26.70;1.00;;;;;;5014730;28;20451;-70
2023/06/23 15:36:55;;;;;;;0.70;0.30;;;26.80;1.00;;;;;;4994720;28;20946;-70
2023/06/23 15:39:25;;;;;;;0.70;0.20;;;;;;;;;;4993468;28;20464;-70
2023/06/23 15:41:54;;;;;;;0.70;0.20;;;27.20;1.00;;;;;;4994686;28;20500;-69
2023/06/23 15:44:24;;;;;;;1.07;0.97;;;27.40;1.00;;;;;;4994692;28;20887;-69
2023/06/23 15:46:53;;;;;;;0.70;0.30;;;27.50;1.00;;;;;;4993847;28;20553;-69
2023/06/23 15:49:23;;;;;;;0.70;0.20;;;27.80;1.00;;;;;;5000000;28;21096;-69
2023/06/23 15:51:51;;;;;;;0.70;0.20;;;27.90;1.00;;;;;;4995161;28;20480;-69
2023/06/23 15:54:19;;;;;;;0.70;0.20;;;28.00;1.00;;;;;;4995521;28;20535;-69
2023/06/23 15:56:47;;;;;;;0.70;0.10;;;27.80;1.00;;;;;;4994853;28;20480;-69
2023/06/23 15:59:14;;;;;;;1.73;0.50;;;27.60;1.00;;;;;;4995127;28;20559;-68
2023/06/23 16:01:44;;;;;;;0.70;0.20;;;27.50;1.00;;;;;;4986333;28;20457;-68
2023/06/23 16:04:11;;;;;;;0.70;0.20;;;27.40;1.00;;;;;;4987909;28;20479;-69
2023/06/23 16:06:40;;;;;;;0.70;0.30;;;27.30;1.00;;;;;;4995063;28;20596;-70
2023/06/23 16:09:08;;;;;;;1.00;0.60;;;27.30;1.00;;;;;;4994523;28;21030;-70
2023/06/23 16:11:36;;;;;;;0.70;0.20;;;27.30;1.00;;;;;;4994564;28;20445;-69
2023/06/23 16:14:04;;;;;;;0.70;0.20;;;27.30;1.00;;;;;;4994671;28;20543;-70
2023/06/23 16:16:32;;;;;;;0.70;0.20;;;27.30;1.00;;;;;;4994660;28;20445;-69
2023/06/23 16:19:01;;;;;;;0.70;0.20;;;27.10;1.00;;;;;;4994854;28;20472;-68
2023/06/23 16:21:30;;;;;;;0.90;0.27;;;27.10;1.00;;;;;;4993846;28;20455;-69
2023/06/23 16:23:58;;;;;;;0.70;0.20;;;27.10;1.00;;;;;;4993947;28;20971;-69
2023/06/23 16:26:25;;;;;;;0.90;0.70;;;27.40;1.00;;;;;;4994026;28;20540;-69
2023/06/23 16:28:53;;;;;;;0.70;0.20;;;27.60;1.00;;;;;;4990149;28;20457;-70
2023/06/23 16:31:22;;;;;;;0.70;0.20;;;27.80;1.00;;;;;;4994570;28;20512;-72
2023/06/23 16:33:50;;;;;;;0.70;0.20;;;27.90;1.00;;;;;;5003842;28;20448;-70
2023/06/23 16:36:20;;;;;;;0.70;0.20;;;28.10;1.00;;;;;;5007412;28;20496;-69
2023/06/23 16:38:49;;;;;;;0.70;0.20;;;28.10;1.00;;;;;;4993602;28;20565;-70
2023/06/23 16:41:17;;;;;;;0.70;0.20;;;28.20;1.00;;;;;;4992479;28;20623;-70
2023/06/23 16:43:45;;;;;;;0.70;0.20;;;28.30;1.00;;;;;;5011515;28;20463;-70
2023/06/23 16:46:13;;;;;;;0.83;0.43;;;28.40;1.00;;;;;;5001131;28;20540;-68
2023/06/23 16:48:40;;;;;;;0.70;0.40;;;28.30;1.00;;;;;;4994003;28;20468;-70
2023/06/23 16:51:08;;;;;;;0.70;0.20;;;28.30;1.00;;;;;;4988998;28;20851;-70
2023/06/23 16:53:38;;;;;;;0.70;0.10;;;28.30;1.00;;;;;;4993536;28;20473;-69
2023/06/23 16:56:06;;;;;;;0.70;0.20;;;28.40;1.00;;;;;;4992710;28;20519;-68
2023/06/23 16:58:34;;;;;;;0.70;0.10;;;28.80;1.00;;;;;;4993571;28;20471;-68
2023/06/23 17:01:02;;;;;;;0.70;0.10;;;28.90;1.00;;;;;;4993710;28;20452;-69
2023/06/23 17:03:31;;;;;;;0.70;0.10;;;29.10;1.00;;;;;;4987059;28;20520;-70
2023/06/23 17:05:59;;;;;;;0.70;0.20;;;28.90;1.00;;;;;;4993485;28;20443;-68
2023/06/23 17:08:27;;;;;;;0.70;0.10;;;28.70;1.00;;;;;;4993647;28;20500;-68
2023/06/23 17:10:56;;;;;;;0.70;0.10;;;28.50;1.00;;;;;;4994577;28;20961;-67
2023/06/23 17:13:24;;;;;;;0.70;0.10;;;28.50;1.00;;;;;;4994955;28;20524;-68
2023/06/23 17:15:51;;;;;;;0.70;0.10;;;28.50;1.00;;;;;;4993496;28;20924;-70
2023/06/23 17:18:19;;;;;;;0.70;0.20;;;28.60;1.00;;;;;;4990978;28;20474;-69